Peach Orchard, Georgia
Current Conditions -  °F | °C
As of 9:53 AM on Monday 24 Nov 2014 (Local Time) from KAGS Reporting Station
Light Rain Light Rain  
Wind Chill: 68°   Ceiling: 700
Heat Index: 68°   Visibility: 10mi
Dew Point: 66°   Wind: 0mph
Humidity: 93%   Direction: NA
Pressure: 29.85"   Gusts: NA
Location:  33.3495°N, 81.976°W
Report Text: KAGS 241453Z 00000KT 10SM -RA OVC007 20/19 A2985 RMK AO2 RAB05 SLP107 P0000 60000 T02000189 53008
Loading
Personal Weather Stations






























Interactive Weather Map New forecast layout! Learn more

10-Day Weather Forecast

Advertisements
Track Severe Weather on mobile